Time;durP1;ratioP1;P1;durP2;ratioP2;P2;SDS_P1;SDS_P2;PMS_P1;PMS_P2;Temp;Humidity;BMP_temperature;BMP_pressure;BME280_temperature;BME280_humidity;BME280_pressure;Samples;Min_cycle;Max_cycle;Signal;HPM_P1;HPM_P2
2022/03/24 00:00:10;;;;;;;28.45;15.85;;;;;;;4.49;50.99;102838.25;5084096;28;20045;-67
2022/03/24 00:02:40;;;;;;;27.38;16.00;;;;;;;4.47;51.33;102845.19;5091471;28;20041;-66
2022/03/24 00:05:08;;;;;;;26.92;16.52;;;;;;;4.45;51.30;102841.63;5088873;28;20127;-66
2022/03/24 00:07:35;;;;;;;30.05;16.60;;;;;;;4.43;51.46;102845.94;5087615;28;20110;-66
2022/03/24 00:10:05;;;;;;;30.58;16.83;;;;;;;4.40;51.50;102843.22;5089263;28;20041;-65
2022/03/24 00:12:32;;;;;;;28.77;15.70;;;;;;;4.38;51.38;102849.25;5083313;28;20055;-66
2022/03/24 00:14:59;;;;;;;28.33;17.38;;;;;;;4.34;51.54;102845.69;5080470;28;20551;-65
2022/03/24 00:17:26;;;;;;;26.30;16.27;;;;;;;4.31;52.00;102842.97;5090513;28;20059;-65
2022/03/24 00:19:53;;;;;;;29.05;17.30;;;;;;;4.29;52.60;102842.94;5089927;28;20055;-66
2022/03/24 00:22:20;;;;;;;33.28;16.30;;;;;;;4.28;52.33;102843.78;5090080;28;20044;-66
2022/03/24 00:24:47;;;;;;;31.80;17.52;;;;;;;4.27;52.83;102842.00;5088108;28;20041;-64
2022/03/24 00:27:15;;;;;;;31.95;17.52;;;;;;;4.27;53.11;102842.00;5090370;28;20032;-65
2022/03/24 00:29:43;;;;;;;31.58;17.10;;;;;;;4.23;52.92;102836.66;5088820;28;20525;-65
2022/03/24 00:32:10;;;;;;;37.70;17.15;;;;;;;4.19;52.96;102843.53;5088679;28;20102;-66
2022/03/24 00:34:38;;;;;;;27.27;17.45;;;;;;;4.15;53.46;102837.34;5089892;28;20045;-67
2022/03/24 00:37:08;;;;;;;37.30;17.35;;;;;;;4.15;54.45;102836.44;5089326;28;20510;-67
2022/03/24 00:39:35;;;;;;;29.30;17.20;;;;;;;4.16;54.69;102838.22;5088937;28;20485;-67
2022/03/24 00:42:09;;;;;;;30.23;17.65;;;;;;;4.13;55.09;102836.41;5090590;28;20802;-66
2022/03/24 00:44:44;;;;;;;;;;;;;;;4.10;54.71;102833.69;5091246;28;20048;-66
2022/03/24 00:47:16;;;;;;;30.65;17.35;;;;;;;4.07;55.03;102830.13;5088067;28;20624;-67
2022/03/24 00:49:47;;;;;;;31.25;17.02;;;;;;;4.03;55.79;102829.16;5089533;28;20044;-67
2022/03/24 00:52:14;;;;;;;30.50;18.00;;;;;;;4.01;56.18;102826.50;5090114;28;20040;-67
2022/03/24 00:54:41;;;;;;;32.03;18.25;;;;;;;4.02;56.94;102827.38;5092111;28;20047;-67
2022/03/24 00:57:08;;;;;;;32.17;18.58;;;;;;;4.01;57.15;102829.13;5091753;28;20512;-68
2022/03/24 00:59:37;;;;;;;34.13;18.10;;;;;;;4.00;57.29;102824.72;5092161;28;20041;-67
2022/03/24 01:02:09;;;;;;;29.75;18.08;;;;;;;4.00;57.79;102827.34;5093827;28;20115;-68
2022/03/24 01:04:40;;;;;;;32.10;18.73;;;;;;;4.01;57.94;102826.50;5106484;28;20049;-68
2022/03/24 01:07:07;;;;;;;30.55;19.02;;;;;;;4.00;58.13;102829.94;5087379;28;20052;-68
2022/03/24 01:09:37;;;;;;;31.50;18.95;;;;;;;4.00;58.22;102826.44;5090068;28;20045;-68
2022/03/24 01:12:05;;;;;;;34.10;18.65;;;;;;;4.03;58.53;102826.53;5090227;28;20048;-67
2022/03/24 01:14:37;;;;;;;33.95;18.77;;;;;;;4.02;57.87;102829.97;5093165;28;20106;-67
2022/03/24 01:17:07;;;;;;;32.95;18.90;;;;;;;3.98;58.23;102825.50;5086226;28;20037;-66
2022/03/24 01:19:35;;;;;;;32.47;18.42;;;;;;;3.93;57.81;102819.28;5104418;28;20147;-65
2022/03/24 01:22:05;;;;;;;35.35;18.02;;;;;;;3.88;57.91;102817.41;5108252;27;20044;-66
2022/03/24 01:24:32;;;;;;;31.40;19.05;;;;;;;3.84;58.10;102819.88;5091294;28;20044;-66
2022/03/24 01:26:59;;;;;;;34.45;18.85;;;;;;;3.81;58.21;102817.22;5087096;28;20535;-66
2022/03/24 01:29:26;;;;;;;34.88;19.35;;;;;;;3.77;57.90;102816.22;5086977;28;20065;-68
2022/03/24 01:31:54;;;;;;;29.55;17.75;;;;;;;3.71;57.78;102813.44;5089501;28;20800;-66
2022/03/24 01:34:22;;;;;;;30.63;17.42;;;;;;;3.66;58.36;102810.69;5080166;28;20044;-66
2022/03/24 01:36:52;;;;;;;32.45;17.98;;;;;;;3.64;58.32;102804.53;5089999;28;20036;-66
2022/03/24 01:39:19;;;;;;;33.90;18.30;;;;;;;3.63;58.70;102807.09;5092171;28;20048;-67
2022/03/24 01:41:47;;;;;;;30.40;18.50;;;;;;;3.60;58.87;102809.59;5090106;28;20125;-66
2022/03/24 01:44:17;;;;;;;30.20;18.13;;;;;;;3.58;58.66;102810.44;5093361;28;20041;-66
2022/03/24 01:47:08;;;;;;;32.63;18.92;;;;;;;3.52;100.00;76270.72;5089962;28;20041;-66
2022/03/24 01:49:39;;;;;;;36.63;19.30;;;;;;;3.53;58.86;102804.22;5097961;27;20121;-66
2022/03/24 01:52:10;;;;;;;35.50;19.23;;;;;;;3.51;59.03;102805.88;5087201;28;20044;-66
2022/03/24 01:54:44;;;;;;;35.80;18.90;;;;;;;3.51;59.30;102808.50;5092128;28;20131;-66
2022/03/24 01:57:17;;;;;;;34.75;19.90;;;;;;;3.49;59.41;102798.88;5091851;28;20071;-66
2022/03/24 01:59:45;;;;;;;38.20;21.00;;;;;;;3.46;59.49;102802.25;5090244;28;20036;-66
2022/03/24 02:02:15;;;;;;;37.42;21.70;;;;;;;3.44;59.68;102797.81;5084106;28;20098;-68
2022/03/24 02:04:43;;;;;;;35.47;20.42;;;;;;;3.43;59.70;102794.34;5083469;28;20090;-67
2022/03/24 02:07:16;;;;;;;39.10;21.63;;;;;;;3.44;59.71;102793.50;5102692;27;20048;-66
2022/03/24 02:09:45;;;;;;;36.35;20.80;;;;;;;3.43;59.20;102794.34;5089646;28;20090;-66
2022/03/24 02:12:14;;;;;;;36.03;20.55;;;;;;;3.39;59.33;102793.38;5090297;28;20493;-66
2022/03/24 02:14:43;;;;;;;39.65;20.95;;;;;;;3.36;59.10;102792.38;5087679;28;20041;-66
2022/03/24 02:17:10;;;;;;;34.03;20.50;;;;;;;3.31;59.36;102787.00;5088868;28;20043;-68
2022/03/24 02:19:37;;;;;;;36.85;20.20;;;;;;;-147.05;100.00;58721.66;5094842;28;20074;-66
2022/03/24 02:22:13;;;;;;;37.53;20.63;;;;;;;-147.05;100.00;58721.66;5078903;28;20041;-65
2022/03/24 02:24:41;;;;;;;34.65;19.67;;;;;;;-147.05;100.00;58721.66;5091010;28;20793;-66
2022/03/24 02:27:11;;;;;;;35.85;20.75;;;;;;;3.18;100.00;102741.44;5089824;28;20040;-66
2022/03/24 02:29:38;;;;;;;34.20;19.88;;;;;;;-147.05;100.00;58721.66;5089870;28;20045;-66
2022/03/24 02:32:08;;;;;;;33.40;20.23;;;;;;;3.07;59.49;102788.03;5087858;28;20047;-67
2022/03/24 02:34:40;;;;;;;36.85;20.52;;;;;;;3.00;59.43;102783.44;5093402;28;20041;-66
2022/03/24 02:37:14;;;;;;;32.25;19.60;;;;;;;2.96;59.78;102778.97;5091690;28;20037;-65
2022/03/24 02:39:45;;;;;;;36.75;20.95;;;;;;;2.95;59.81;102787.63;5092388;28;20525;-66
2022/03/24 02:42:18;;;;;;;38.28;20.35;;;;;;;2.93;59.77;102789.28;5090545;28;20037;-64
2022/03/24 02:44:49;;;;;;;35.13;20.63;;;;;;;2.89;60.17;102788.31;5091779;28;20120;-64
2022/03/24 02:47:17;;;;;;;39.50;19.80;;;;;;;2.87;59.92;102789.09;5090162;28;20039;-65
2022/03/24 02:49:50;;;;;;;34.17;19.80;;;;;;;2.84;59.93;102778.56;5090852;28;20138;-66
2022/03/24 02:52:17;;;;;;;37.95;19.48;;;;;;;2.82;60.10;102788.03;5090361;28;20522;-66
2022/03/24 02:54:45;;;;;;;33.53;20.13;;;;;;;2.79;60.27;102794.03;5089009;28;20071;-67
2022/03/24 02:57:13;;;;;;;32.22;19.38;;;;;;;2.78;60.62;102785.34;5091883;28;20124;-67
2022/03/24 02:59:41;;;;;;;36.25;20.33;;;;;;;2.73;60.28;102789.50;5092023;28;20036;-67
2022/03/24 03:02:13;;;;;;;34.08;19.75;;;;;;;2.69;60.13;102790.25;5089675;28;20033;-66
2022/03/24 03:04:45;;;;;;;37.05;20.08;;;;;;;2.62;60.70;102785.66;5089710;28;20139;-68
2022/03/24 03:07:13;;;;;;;36.42;19.85;;;;;;;2.56;60.50;102785.47;5089911;28;20063;-67
2022/03/24 03:09:42;;;;;;;37.03;20.67;;;;;;;2.51;60.31;102785.31;5085232;28;20049;-67
2022/03/24 03:12:10;;;;;;;33.45;19.17;;;;;;;2.43;100.00;102790.25;5080149;28;20044;-66
2022/03/24 03:14:39;;;;;;;34.25;20.27;;;;;;;-147.05;100.00;58721.66;5090636;28;20049;-67
2022/03/24 03:17:08;;;;;;;37.03;20.13;;;;;;;-147.05;100.00;58721.66;5090106;28;20045;-66
2022/03/24 03:19:36;;;;;;;34.55;19.70;;;;;;;2.31;100.00;58721.66;5089369;28;20041;-66
2022/03/24 03:22:04;;;;;;;33.50;19.63;;;;;;;-147.05;100.00;58721.66;5087705;28;20048;-67
2022/03/24 03:24:31;;;;;;;33.65;19.70;;;;;;;-147.05;100.00;58721.66;5089990;28;20062;-66
2022/03/24 03:26:59;;;;;;;35.42;20.10;;;;;;;-147.05;100.00;58721.66;5090421;28;20037;-67
2022/03/24 03:29:27;;;;;;;36.45;19.65;;;;;;;-147.05;100.00;58721.66;5090198;28;20040;-67
2022/03/24 03:31:55;;;;;;;38.28;20.35;;;;;;;-147.05;100.00;58721.66;5090114;28;20340;-67
2022/03/24 03:34:24;;;;;;;40.00;19.85;;;;;;;-147.05;100.00;58721.66;5090338;28;20048;-67
2022/03/24 03:36:56;;;;;;;36.50;19.80;;;;;;;2.11;60.96;102792.59;5089555;28;20518;-67
2022/03/24 03:39:24;;;;;;;35.38;20.38;;;;;;;2.07;61.25;102797.63;5071535;28;20487;-67
2022/03/24 03:41:52;;;;;;;33.85;18.80;;;;;;;2.01;61.09;102791.38;5087999;28;20051;-66
2022/03/24 03:44:19;;;;;;;34.47;19.63;;;;;;;1.99;61.18;102795.63;5090677;28;20075;-66
2022/03/24 03:46:48;;;;;;;38.95;20.92;;;;;;;1.97;61.46;102796.41;5089711;28;20036;-66
2022/03/24 03:49:16;;;;;;;34.88;19.73;;;;;;;1.94;61.44;102785.91;5090304;28;20110;-67
2022/03/24 03:51:43;;;;;;;35.85;19.40;;;;;;;1.92;61.57;102790.16;5088773;28;20041;-68
2022/03/24 03:54:10;;;;;;;35.80;19.77;;;;;;;1.88;61.77;102788.28;5087635;28;20067;-67
2022/03/24 03:56:38;;;;;;;38.42;21.50;;;;;;;1.85;61.61;102796.84;5084376;28;20045;-66
2022/03/24 03:59:06;;;;;;;35.38;19.75;;;;;;;1.81;61.52;102798.44;5091429;28;20036;-65
2022/03/24 04:01:34;;;;;;;31.73;18.50;;;;;;;1.79;61.80;102796.63;5090959;28;20126;-67
2022/03/24 04:04:04;;;;;;;34.40;19.48;;;;;;;1.78;61.76;102800.03;5083792;28;20913;-66
2022/03/24 04:06:31;;;;;;;35.42;19.85;;;;;;;1.76;61.58;102796.50;5089869;28;20055;-65
2022/03/24 04:09:00;;;;;;;33.45;19.65;;;;;;;1.73;61.99;102802.47;5089676;28;20043;-65
2022/03/24 04:11:27;;;;;;;36.03;19.65;;;;;;;1.70;61.96;102792.84;5089346;28;20044;-66
2022/03/24 04:13:54;;;;;;;32.72;19.52;;;;;;;1.70;62.22;102792.84;5083285;28;20045;-65
2022/03/24 04:16:22;;;;;;;35.63;20.40;;;;;;;1.69;62.26;102797.97;5088811;28;20064;-67
2022/03/24 04:18:49;;;;;;;34.97;19.80;;;;;;;1.68;62.43;102794.50;5090997;28;20072;-65
2022/03/24 04:21:18;;;;;;;42.97;20.73;;;;;;;1.68;62.55;102804.91;5089745;28;20064;-66
2022/03/24 04:23:46;;;;;;;37.72;21.15;;;;;;;1.66;62.71;102803.94;5089962;28;20041;-67
2022/03/24 04:26:17;;;;;;;34.25;21.25;;;;;;;1.63;62.40;102798.63;5088967;28;20037;-68
2022/03/24 04:28:44;;;;;;;36.40;20.98;;;;;;;1.60;62.40;102806.31;5090811;28;20737;-66
2022/03/24 04:31:12;;;;;;;33.22;20.05;;;;;;;1.57;62.49;102797.53;5093192;28;20223;-66
2022/03/24 04:33:40;;;;;;;34.88;20.02;;;;;;;1.54;62.67;102800.88;5091926;28;20049;-67
2022/03/24 04:36:08;;;;;;;36.00;20.38;;;;;;;1.52;62.73;102797.34;5090669;28;20036;-66
2022/03/24 04:38:37;;;;;;;38.00;20.83;;;;;;;1.49;62.88;102805.91;5093972;28;20085;-66
2022/03/24 04:41:05;;;;;;;33.83;19.92;;;;;;;1.46;63.04;102798.00;5091700;28;20717;-65
2022/03/24 04:43:34;;;;;;;34.83;20.35;;;;;;;1.45;63.01;102801.41;5092927;28;20477;-66
2022/03/24 04:46:02;;;;;;;36.97;21.40;;;;;;;1.42;63.18;102793.50;5093884;28;20036;-65
2022/03/24 04:48:35;;;;;;;35.20;20.50;;;;;;;1.41;63.45;102803.84;5093874;28;20041;-65
2022/03/24 04:51:07;;;;;;;36.58;20.58;;;;;;;1.39;63.53;102804.66;5091342;28;20045;-66
2022/03/24 04:53:34;;;;;;;34.60;19.90;;;;;;;1.37;63.32;102808.03;5086170;28;20036;-65
2022/03/24 04:56:02;;;;;;;37.25;20.70;;;;;;;1.33;63.40;102804.41;5092001;28;20040;-67
2022/03/24 04:58:29;;;;;;;35.47;20.95;;;;;;;1.34;63.28;102807.91;5092525;28;20779;-67
2022/03/24 05:00:58;;;;;;;34.30;20.08;;;;;;;1.31;63.71;102805.19;5093902;28;20040;-68
2022/03/24 05:03:26;;;;;;;36.30;20.65;;;;;;;1.30;63.61;102798.19;5094264;28;20056;-67
2022/03/24 05:05:54;;;;;;;36.72;20.45;;;;;;;1.29;63.68;102802.53;5093775;28;20124;-67
2022/03/24 05:08:21;;;;;;;33.88;20.10;;;;;;;1.25;63.67;102808.41;5087053;28;20932;-66
2022/03/24 05:10:49;;;;;;;34.08;19.23;;;;;;;1.22;63.85;102804.00;5092015;28;20849;-67
2022/03/24 05:13:17;;;;;;;33.95;20.08;;;;;;;1.19;63.91;102808.19;5092941;28;20078;-67
2022/03/24 05:15:44;;;;;;;34.95;20.23;;;;;;;1.17;63.96;102804.63;5093001;28;20507;-67
2022/03/24 05:18:11;;;;;;;36.50;20.30;;;;;;;1.13;63.85;102803.63;5092037;28;20090;-67
2022/03/24 05:20:38;;;;;;;35.75;19.88;;;;;;;1.12;63.99;102803.56;5092081;28;20071;-67
2022/03/24 05:23:05;;;;;;;40.03;20.08;;;;;;;1.11;64.10;102801.81;5093610;28;20048;-67
2022/03/24 05:25:33;;;;;;;42.83;20.70;;;;;;;1.12;64.47;102808.78;5092564;28;20045;-66
2022/03/24 05:27:59;;;;;;;35.60;20.35;;;;;;;1.12;64.41;102807.06;5091465;28;20043;-67
2022/03/24 05:30:27;;;;;;;38.47;20.98;;;;;;;1.12;64.58;102812.25;5092356;28;20053;-65
2022/03/24 05:32:54;;;;;;;43.00;20.85;;;;;;;1.14;64.79;102808.00;5092282;28;20049;-66
2022/03/24 05:35:22;;;;;;;36.33;21.23;;;;;;;1.16;65.08;102808.97;5087616;28;20551;-66
2022/03/24 05:37:49;;;;;;;44.58;20.92;;;;;;;1.20;64.85;102803.03;5092061;28;20713;-65
2022/03/24 05:40:17;;;;;;;46.03;21.40;;;;;;;1.26;64.99;102809.31;5092814;28;20465;-65
2022/03/24 05:42:44;;;;;;;40.97;21.15;;;;;;;1.29;64.86;102812.94;5092926;28;20045;-64
2022/03/24 05:45:12;;;;;;;37.00;20.27;;;;;;;1.34;65.00;102811.38;5092157;28;20131;-66
2022/03/24 05:47:39;;;;;;;39.47;21.13;;;;;;;1.38;64.74;102815.88;5092630;28;20045;-67
2022/03/24 05:50:10;;;;;;;65.95;24.20;;;;;;;1.43;64.94;102813.47;5085737;28;20045;-66
2022/03/24 05:53:07;;;;;;;53.72;22.00;;;;;;;1.52;65.01;102816.41;5079290;28;20986;-66
2022/03/24 05:55:36;;;;;;;84.22;24.92;;;;;;;1.60;64.95;102821.03;5092096;28;20056;-66
2022/03/24 05:58:04;;;;;;;91.43;25.58;;;;;;;1.67;65.16;102808.31;5091798;28;20050;-66
2022/03/24 06:00:31;;;;;;;84.43;25.77;;;;;;;1.77;65.00;102811.28;5092086;28;20064;-66
2022/03/24 06:03:00;;;;;;;49.20;21.90;;;;;;;1.85;64.75;102818.53;5090489;28;20040;-65
2022/03/24 06:05:27;;;;;;;52.92;23.15;;;;;;;1.95;64.87;102811.09;5091057;28;20048;-64
2022/03/24 06:07:55;;;;;;;65.05;23.88;;;;;;;2.04;65.23;102814.03;5090328;28;20049;-66
2022/03/24 06:10:22;;;;;;;57.67;24.17;;;;;;;2.13;64.83;102816.97;5093333;28;20052;-66
2022/03/24 06:12:50;;;;;;;70.13;23.77;;;;;;;2.21;64.74;102817.25;5093184;28;20032;-66
2022/03/24 06:15:18;;;;;;;47.38;22.08;;;;;;;2.33;65.11;102824.59;5090408;28;20490;-66
2022/03/24 06:17:45;;;;;;;51.28;21.45;;;;;;;2.41;64.59;102820.53;5088184;28;20053;-66
2022/03/24 06:20:13;;;;;;;46.38;20.85;;;;;;;2.50;64.56;102820.00;5092825;28;20055;-65
2022/03/24 06:22:50;;;;;;;74.80;26.38;;;;;;;2.58;64.73;102817.66;5089996;28;20048;-65
2022/03/24 06:25:19;;;;;;;72.50;27.00;;;;;;;2.73;65.58;102831.19;5090781;28;20141;-65
2022/03/24 06:27:49;;;;;;;69.70;25.52;;;;;;;2.90;66.96;102828.28;5094674;28;20037;-66
2022/03/24 06:30:17;;;;;;;57.22;24.35;;;;;;;3.06;66.55;102829.66;5092208;28;20107;-65
2022/03/24 06:32:46;;;;;;;59.38;24.83;;;;;;;3.18;65.80;102826.59;5093295;28;20071;-65
2022/03/24 06:35:15;;;;;;;47.97;23.88;;;;;;;3.32;65.66;102829.63;5076368;28;20087;-65
2022/03/24 06:37:44;;;;;;;67.22;24.38;;;;;;;3.42;65.24;102823.88;5073863;28;20080;-65
2022/03/24 06:40:14;;;;;;;49.60;23.33;;;;;;;3.54;64.89;102825.94;5075551;28;20040;-65
2022/03/24 06:42:42;;;;;;;52.50;23.17;;;;;;;3.67;64.44;102827.22;5090931;28;20045;-65
2022/03/24 06:45:12;;;;;;;50.13;22.98;;;;;;;3.80;64.38;102823.25;5092591;28;20032;-65
2022/03/24 06:47:41;;;;;;;55.67;23.98;;;;;;;3.94;64.23;102826.28;5093339;28;20029;-65
2022/03/24 06:50:12;;;;;;;47.95;23.77;;;;;;;4.07;64.17;102827.50;5073704;28;20044;-66
2022/03/24 06:52:47;;;;;;;54.03;23.35;;;;;;;4.21;64.12;102831.41;5077416;28;20118;-65
2022/03/24 06:55:14;;;;;;;48.53;23.42;;;;;;;4.35;63.69;102831.78;5090378;28;20060;-66
2022/03/24 06:57:45;;;;;;;63.55;25.80;;;;;;;4.48;63.57;102826.03;5078817;28;20039;-65
2022/03/24 07:00:15;;;;;;;63.03;24.77;;;;;;;4.63;63.36;102829.91;5072787;28;20083;-66
2022/03/24 07:02:43;;;;;;;56.80;24.02;;;;;;;4.80;63.45;102822.50;5085431;28;20494;-66
2022/03/24 07:05:13;;;;;;;72.93;25.90;;;;;;;4.98;63.89;102822.97;5093351;28;20103;-66
2022/03/24 07:07:41;;;;;;;59.85;24.48;;;;;;;5.17;64.50;102822.53;5091494;28;20177;-66
2022/03/24 07:10:09;;;;;;;51.05;25.73;;;;;;;5.37;63.88;102821.28;5091523;28;20044;-66
2022/03/24 07:12:37;;;;;;;83.65;27.30;;;;;;;5.55;63.73;102827.78;5089889;28;20052;-66
2022/03/24 07:15:08;;;;;;;51.97;25.73;;;;;;;5.73;62.88;102828.16;5091032;28;20134;-66
2022/03/24 07:17:36;;;;;;;57.53;24.48;;;;;;;5.91;62.53;102819.81;5091801;28;20044;-66
2022/03/24 07:20:05;;;;;;;58.55;24.58;;;;;;;6.07;62.22;102822.78;5092334;28;20043;-67
2022/03/24 07:22:37;;;;;;;48.95;24.50;;;;;;;6.24;62.37;102828.34;5080129;28;20053;-67
2022/03/24 07:25:07;;;;;;;44.42;24.15;;;;;;;6.39;62.12;102834.75;5082534;28;20048;-67
2022/03/24 07:27:34;;;;;;;43.58;23.92;;;;;;;6.53;61.59;102828.94;5089837;28;20399;-67
2022/03/24 07:30:04;;;;;;;44.80;24.60;;;;;;;6.70;61.25;102840.56;5086027;28;20125;-67
2022/03/24 07:32:33;;;;;;;53.88;24.60;;;;;;;6.84;60.67;102841.69;5071707;28;20466;-68
2022/03/24 07:35:00;;;;;;;56.92;25.13;;;;;;;6.97;60.17;102837.53;5071358;28;20051;-68
2022/03/24 07:37:29;;;;;;;66.60;25.45;;;;;;;7.10;59.85;102831.63;5088749;28;20571;-68
2022/03/24 07:39:56;;;;;;;55.47;23.80;;;;;;;7.28;59.60;102832.75;5092250;28;20494;-67
2022/03/24 07:42:23;;;;;;;62.38;24.52;;;;;;;7.44;59.53;102833.88;5091947;28;20037;-68
2022/03/24 07:44:50;;;;;;;64.05;24.25;;;;;;;7.61;58.96;102840.28;5086025;28;20037;-67
2022/03/24 07:47:17;;;;;;;45.28;22.30;;;;;;;7.80;58.19;102834.38;5087188;28;20037;-67
2022/03/24 07:49:46;;;;;;;41.42;22.95;;;;;;;7.96;57.69;102833.72;5092122;28;20075;-67
2022/03/24 07:52:14;;;;;;;48.33;24.20;;;;;;;8.12;57.56;102826.00;5092096;28;20041;-68
2022/03/24 07:54:41;;;;;;;61.58;25.75;;;;;;;8.31;57.12;102837.63;5090445;28;20048;-68
2022/03/24 07:57:08;;;;;;;49.13;24.08;;;;;;;8.48;57.00;102829.97;5092067;28;20033;-67
2022/03/24 07:59:39;;;;;;;101.20;27.27;;;;;;;8.62;56.69;102830.97;5091331;28;20064;-66
2022/03/24 08:02:07;;;;;;;64.68;25.65;;;;;;;8.76;56.69;102832.84;5092695;28;20041;-68
2022/03/24 08:04:34;;;;;;;48.92;24.98;;;;;;;8.92;56.40;102831.25;5088673;28;20525;-68
2022/03/24 08:07:03;;;;;;;76.93;25.95;;;;;;;9.08;56.22;102837.50;5074929;28;20104;-66
2022/03/24 08:09:33;;;;;;;45.75;23.95;;;;;;;9.24;55.69;102838.50;5074775;28;20037;-67
2022/03/24 08:12:05;;;;;;;48.58;23.95;;;;;;;9.38;55.06;102839.47;5090056;28;20126;-67
2022/03/24 08:14:32;;;;;;;69.65;25.02;;;;;;;9.53;54.94;102832.56;5095333;28;20094;-67
2022/03/24 08:17:00;;;;;;;52.72;24.10;;;;;;;9.70;53.81;102837.91;5094646;28;20041;-67
2022/03/24 08:19:27;;;;;;;56.70;23.08;;;;;;;9.86;53.63;102839.75;5095234;28;20044;-67
2022/03/24 08:21:54;;;;;;;61.08;24.25;;;;;;;10.02;52.79;102839.81;5094494;28;20529;-67
2022/03/24 08:24:21;;;;;;;40.03;23.02;;;;;;;10.18;52.08;102843.38;5095604;28;20044;-66
2022/03/24 08:26:48;;;;;;;38.85;23.05;;;;;;;10.30;51.02;102840.78;5079210;28;20037;-66
2022/03/24 08:29:15;;;;;;;45.83;23.33;;;;;;;10.41;50.81;102843.50;5075809;28;20055;-67
2022/03/24 08:31:42;;;;;;;52.97;24.23;;;;;;;10.55;50.76;102844.38;5075346;28;20107;-67
2022/03/24 08:34:09;;;;;;;96.35;26.88;;;;;;;10.71;50.66;102847.06;5075304;28;20075;-67
2022/03/24 08:36:36;;;;;;;49.15;22.80;;;;;;;10.86;49.67;102848.84;5074729;28;20044;-68
2022/03/24 08:39:03;;;;;;;72.13;24.10;;;;;;;11.01;49.00;102851.47;5075568;28;20041;-67
2022/03/24 08:41:31;;;;;;;34.60;20.75;;;;;;;11.15;48.51;102856.72;5075503;28;20045;-67
2022/03/24 08:43:58;;;;;;;46.92;22.10;;;;;;;11.27;46.14;102850.59;5076147;28;20066;-67
2022/03/24 08:46:25;;;;;;;39.58;22.73;;;;;;;11.45;46.77;102851.44;5075246;28;20049;-67
2022/03/24 08:48:54;;;;;;;37.28;21.83;;;;;;;11.59;46.04;102849.66;5075514;28;20442;-67
2022/03/24 08:51:22;;;;;;;43.97;22.83;;;;;;;11.75;45.87;102849.59;5075078;28;20497;-67
2022/03/24 08:53:50;;;;;;;51.25;24.42;;;;;;;11.89;45.60;102849.53;5074353;28;20041;-67
2022/03/24 08:56:17;;;;;;;41.75;22.58;;;;;;;12.03;45.57;102850.41;5074499;28;20812;-67
2022/03/24 08:58:46;;;;;;;76.75;25.67;;;;;;;12.15;45.73;102856.53;5077241;28;20176;-67
2022/03/24 09:01:14;;;;;;;35.65;21.63;;;;;;;12.27;44.75;102854.69;5094302;28;20521;-67
2022/03/24 09:03:41;;;;;;;40.17;22.10;;;;;;;12.37;44.39;102852.84;5094469;28;20124;-66
2022/03/24 09:06:09;;;;;;;37.40;21.48;;;;;;;12.49;43.98;102856.31;5094375;28;20071;-67
2022/03/24 09:08:37;;;;;;;53.70;24.40;;;;;;;12.58;43.22;102859.81;5094462;28;20551;-66
2022/03/24 09:11:04;;;;;;;64.00;25.02;;;;;;;12.67;43.74;102864.13;5094608;28;20036;-66
2022/03/24 09:13:31;;;;;;;38.72;23.10;;;;;;;12.76;43.38;102859.69;5088395;28;20041;-67
2022/03/24 09:15:58;;;;;;;55.70;24.75;;;;;;;12.84;42.82;102855.22;5081758;28;20051;-67
2022/03/24 09:18:25;;;;;;;45.67;23.67;;;;;;;12.91;42.38;102853.41;5094284;28;20455;-67
2022/03/24 09:20:53;;;;;;;45.70;24.00;;;;;;;13.00;42.28;102853.31;5094484;28;20039;-67
2022/03/24 09:23:22;;;;;;;49.17;24.15;;;;;;;13.17;42.52;102861.13;5094236;28;20106;-66
2022/03/24 09:25:49;;;;;;;64.20;24.60;;;;;;;13.33;42.04;102862.72;5093615;28;20044;-67
2022/03/24 09:28:16;;;;;;;39.40;22.45;;;;;;;13.47;41.35;102854.66;5094170;28;20043;-67
2022/03/24 09:30:50;;;;;;;36.75;22.33;;;;;;;13.63;41.12;102862.47;5091317;28;20968;-67
2022/03/24 09:33:18;;;;;;;33.17;21.95;;;;;;;13.74;41.33;102857.03;5093828;28;20512;-67
2022/03/24 09:35:45;;;;;;;45.17;22.48;;;;;;;13.84;40.37;102866.63;5093618;28;20045;-66
2022/03/24 09:38:12;;;;;;;40.35;23.15;;;;;;;13.97;40.72;102862.94;5093553;28;20055;-68
2022/03/24 09:40:40;;;;;;;51.03;24.23;;;;;;;14.14;39.74;102864.50;5093800;28;20706;-66
2022/03/24 09:43:11;;;;;;;45.88;22.85;;;;;;;14.29;39.18;102858.09;5094361;28;20424;-66
2022/03/24 09:45:42;;;;;;;42.10;22.67;;;;;;;14.44;36.72;102863.22;5091770;28;20068;-66
2022/03/24 09:48:10;;;;;;;37.78;22.15;;;;;;;14.62;37.65;102860.28;5093592;28;20044;-67
2022/03/24 09:50:39;;;;;;;89.85;25.45;;;;;;;14.74;37.00;102865.44;5081861;28;20057;-67
2022/03/24 09:53:06;;;;;;;47.92;22.35;;;;;;;14.88;36.50;102854.59;5073826;28;20049;-67
2022/03/24 09:55:36;;;;;;;33.50;20.60;;;;;;;15.01;35.63;102855.25;5073397;28;20041;-68
2022/03/24 09:58:06;;;;;;;45.58;22.08;;;;;;;15.14;35.67;102855.94;5085597;28;20613;-68
2022/03/24 10:00:40;;;;;;;34.50;20.65;;;;;;;15.32;35.33;102860.03;5093464;28;20102;-66
2022/03/24 10:03:16;;;;;;;30.38;20.65;;;;;;;15.42;33.65;102851.00;5075782;28;20103;-67
2022/03/24 10:06:04;;;;;;;34.08;19.65;;;;;;;15.48;32.02;102856.22;5087687;28;20041;-68
2022/03/24 10:08:31;;;;;;;125.65;25.52;;;;;;;15.62;32.16;102850.63;5093808;28;20490;-66
2022/03/24 10:11:07;;;;;;;39.72;20.52;;;;;;;15.72;31.24;102851.28;5093544;28;20033;-67
2022/03/24 10:13:51;;;;;;;35.55;19.95;;;;;;;15.91;32.72;102848.31;5093469;28;20506;-68
2022/03/24 10:16:34;;;;;;;38.85;19.55;;;;;;;16.09;30.54;102850.59;5092665;28;20047;-68
2022/03/24 10:19:14;;;;;;;37.42;19.58;;;;;;;16.26;30.89;102852.88;5072843;28;20041;-68
2022/03/24 10:21:50;;;;;;;26.08;18.58;;;;;;;16.39;31.01;102844.59;5071692;28;20045;-68
2022/03/24 10:24:21;;;;;;;25.20;17.48;;;;;;;16.51;30.41;102846.97;5072624;28;20052;-67
2022/03/24 10:26:50;;;;;;;40.13;18.05;;;;;;;16.64;30.78;102844.03;5081484;28;20045;-67
2022/03/24 10:29:21;;;;;;;31.08;18.67;;;;;;;16.81;31.38;102835.63;5093393;28;20044;-69
2022/03/24 10:31:58;;;;;;;22.77;16.65;;;;;;;17.00;29.65;102836.06;5082066;28;20072;-68
2022/03/24 10:34:38;;;;;;;41.78;18.85;;;;;;;17.14;27.92;102830.38;5072710;28;20043;-68
2022/03/24 10:37:18;;;;;;;25.90;15.68;;;;;;;17.28;26.85;102835.34;5072837;28;20056;-69
2022/03/24 10:40:14;;;;;;;24.95;16.17;;;;;;;17.29;25.99;102834.44;5072723;28;20045;-68
2022/03/24 10:42:42;;;;;;;25.27;16.90;;;;;;;17.34;26.99;102828.06;5067290;28;20057;-67
2022/03/24 10:45:21;;;;;;;24.65;16.63;;;;;;;17.43;26.72;102826.91;5072466;28;20044;-68
2022/03/24 10:47:56;;;;;;;20.58;15.90;;;;;;;17.54;25.74;102826.63;5073456;28;20861;-69
2022/03/24 10:50:41;;;;;;;21.63;16.65;;;;;;;17.56;25.54;102830.09;5075122;28;20048;-68
2022/03/24 10:53:12;;;;;;;20.83;15.23;;;;;;;17.68;23.77;102826.22;5092111;28;20086;-69
2022/03/24 10:55:50;;;;;;;21.00;15.63;;;;;;;17.75;23.83;102827.78;5073760;28;20041;-69
2022/03/24 10:58:17;;;;;;;27.60;16.35;;;;;;;17.79;23.91;102824.13;5082152;28;20499;-68
2022/03/24 11:00:48;;;;;;;24.50;16.60;;;;;;;17.83;23.71;102822.25;5093060;28;20047;-68
2022/03/24 11:03:18;;;;;;;23.92;15.57;;;;;;;17.83;23.81;102831.09;5092577;28;20509;-67
2022/03/24 11:05:46;;;;;;;21.88;15.55;;;;;;;17.85;23.72;102818.59;5091806;28;20123;-67
2022/03/24 11:08:19;;;;;;;23.67;16.17;;;;;;;17.83;23.23;102822.25;5092746;28;20041;-68
2022/03/24 11:10:49;;;;;;;25.48;16.40;;;;;;;17.87;23.53;102823.88;5081483;28;20037;-67
2022/03/24 11:13:52;;;;;;;33.00;16.70;;;;;;;18.02;24.23;102825.25;5092318;28;20048;-68
2022/03/24 11:16:25;;;;;;;26.88;16.75;;;;;;;18.10;23.99;102827.69;5072013;28;20057;-68
2022/03/24 11:18:56;;;;;;;24.27;16.40;;;;;;;18.20;23.64;102822.94;5082938;28;20098;-68
2022/03/24 11:21:38;;;;;;;23.65;14.93;;;;;;;18.22;23.40;102819.31;5085530;28;20090;-67
2022/03/24 11:24:08;;;;;;;26.35;15.88;;;;;;;18.26;23.83;102817.41;5092323;28;20044;-66